Time;durP1;ratioP1;P1;durP2;ratioP2;P2;SDS_P1;SDS_P2;PMS_P1;PMS_P2;Temp;Humidity;BMP_temperature;BMP_pressure;BME280_temperature;BME280_humidity;BME280_pressure;Samples;Min_cycle;Max_cycle;Signal;HPM_P1;HPM_P2
2022/11/26 00:02:22;;;;;;;10.98;5.82;;;;;;;7.21;95.42;101999.53;5109150;28;20061;-70
2022/11/26 00:04:47;;;;;;;12.18;6.35;;;;;;;7.35;94.34;101990.16;5115581;28;20823;-71
2022/11/26 00:07:16;;;;;;;25.40;13.98;;;;;;;7.00;94.92;101948.91;5085850;28;20044;-71
2022/11/26 00:09:41;;;;;;;15.50;9.30;;;;;;;7.30;95.37;101996.81;5114635;28;20095;-71
2022/11/26 00:12:15;;;;;;;13.75;8.20;;;;;;;7.40;94.53;101990.56;5111714;28;20062;-71
2022/11/26 00:14:41;;;;;;;29.65;15.82;;;;;;;7.28;94.49;101985.44;5104323;28;20426;-71
2022/11/26 00:17:10;;;;;;;14.93;9.40;;;;;;;7.16;95.23;101961.69;5118705;28;20028;-71
2022/11/26 00:19:35;;;;;;;12.05;8.27;;;;;;;7.40;94.48;101999.44;5109885;28;20023;-71
2022/11/26 00:22:01;;;;;;;13.25;8.50;;;;;;;7.44;94.18;102003.50;5114755;28;20100;-71
2022/11/26 00:24:28;;;;;;;15.88;9.40;;;;;;;7.14;96.49;101983.22;5116331;28;20065;-70
2022/11/26 00:26:56;;;;;;;14.38;8.40;;;;;;;7.33;95.43;102002.88;5107359;28;20016;-71
2022/11/26 00:29:21;;;;;;;13.10;8.70;;;;;;;7.39;94.97;102004.97;5121221;28;20031;-71
2022/11/26 00:31:47;;;;;;;13.68;8.00;;;;;;;7.34;95.06;101996.53;5112101;28;20091;-71
2022/11/26 00:34:12;;;;;;;9.80;6.93;;;;;;;7.30;96.02;101987.94;5113364;28;20078;-71
2022/11/26 00:36:38;;;;;;;12.45;8.55;;;;;;;7.25;96.99;101988.41;5118498;28;20058;-71
2022/11/26 00:39:11;;;;;;;13.88;8.30;;;;;;;7.30;95.90;101993.28;5108936;28;20070;-71
2022/11/26 00:41:38;;;;;;;11.40;7.97;;;;;;;7.34;95.57;101986.66;5117938;28;20031;-71
2022/11/26 00:44:16;;;;;;;11.02;7.45;;;;;;;7.27;96.49;101993.59;5096790;28;20084;-71
2022/11/26 00:46:42;;;;;;;12.40;9.30;;;;;;;7.14;97.80;102003.78;5110404;28;20043;-71
2022/11/26 00:49:07;;;;;;;10.45;7.75;;;;;;;7.05;97.25;101981.41;5121184;28;20035;-71
2022/11/26 00:51:33;;;;;;;11.00;7.63;;;;;;;7.27;96.27;101994.44;5091802;28;20058;-72
2022/11/26 00:54:01;;;;;;;10.32;6.80;;;;;;;7.26;96.06;101976.69;5112332;28;20390;-72
2022/11/26 00:56:27;;;;;;;10.82;7.55;;;;;;;7.18;97.49;101991.78;5113870;28;20051;-70
2022/11/26 00:58:55;;;;;;;10.05;7.00;;;;;;;7.27;97.08;101997.09;5104247;28;20095;-70
2022/11/26 01:01:23;;;;;;;13.30;8.75;;;;;;;7.33;96.61;102001.03;5103586;28;20030;-70
2022/11/26 01:03:50;;;;;;;9.27;7.03;;;;;;;7.43;95.86;102014.38;5112284;28;20051;-70
2022/11/26 01:06:22;;;;;;;8.93;6.63;;;;;;;7.45;96.38;102007.03;5111952;28;20435;-70
2022/11/26 01:08:48;;;;;;;15.02;9.55;;;;;;;7.44;96.03;102002.66;5104496;28;20406;-71
2022/11/26 01:11:17;;;;;;;11.82;7.70;;;;;;;7.48;95.81;102015.63;5117147;28;20036;-71
2022/11/26 01:14:04;;;;;;;11.20;7.88;;;;;;;7.44;96.22;102014.22;5108720;28;20028;-70
2022/11/26 01:16:37;;;;;;;10.70;7.00;;;;;;;7.48;96.06;102015.63;5085150;28;20135;-71
2022/11/26 01:19:03;;;;;;;11.05;7.20;;;;;;;7.47;96.16;102021.94;5094893;28;20152;-70
2022/11/26 01:21:30;;;;;;;10.07;6.50;;;;;;;7.51;95.90;102017.97;5065833;28;20122;-71
2022/11/26 01:23:56;;;;;;;9.07;6.60;;;;;;;7.47;96.01;102013.91;5072741;28;20142;-70
2022/11/26 01:26:26;;;;;;;9.73;7.18;;;;;;;7.47;96.17;102013.09;5056864;28;20482;-71
2022/11/26 01:28:52;;;;;;;10.57;7.13;;;;;;;7.42;97.01;102018.06;5065076;28;20036;-72
2022/11/26 01:31:21;;;;;;;11.35;6.80;;;;;;;7.32;96.97;102001.16;5064175;28;20135;-71
2022/11/26 01:33:47;;;;;;;10.73;7.03;;;;;;;7.52;96.94;102027.72;5071425;28;20133;-71
2022/11/26 01:36:25;;;;;;;13.25;6.97;;;;;;;7.49;96.43;102003.06;5091380;28;20044;-71
2022/11/26 01:38:56;;;;;;;9.70;6.55;;;;;;;7.53;96.71;102020.53;5080915;28;20066;-71
2022/11/26 01:41:44;;;;;;;11.07;6.82;;;;;;;7.49;96.45;102019.97;5068364;28;20046;-71
2022/11/26 01:44:19;;;;;;;13.07;7.13;;;;;;;7.44;97.33;102032.97;5074334;28;20032;-72
2022/11/26 01:46:46;;;;;;;11.20;7.32;;;;;;;7.50;96.81;102031.53;5101302;28;20036;-71
2022/11/26 01:49:32;;;;;;;10.52;7.38;;;;;;;7.47;97.18;102027.31;5107067;28;20031;-71
2022/11/26 01:52:04;;;;;;;11.05;7.40;;;;;;;7.50;97.04;102029.69;5114691;28;20107;-73
2022/11/26 01:54:31;;;;;;;11.82;7.53;;;;;;;7.52;97.39;102042.94;5115191;28;20038;-71
2022/11/26 01:57:08;;;;;;;10.07;6.85;;;;;;;7.39;97.56;102016.50;5106296;28;20048;-71
2022/11/26 01:59:39;;;;;;;12.55;6.97;;;;;;;7.56;96.74;102033.63;5129516;28;20051;-71
2022/11/26 02:02:04;;;;;;;10.15;7.32;;;;;;;7.57;96.65;102045.16;5113080;28;20020;-71
2022/11/26 02:04:39;;;;;;;10.35;6.05;;;;;;;7.57;97.05;102042.50;5103453;28;20049;-71
2022/11/26 02:07:04;;;;;;;8.68;6.60;;;;;;;7.56;96.70;102041.66;5117167;28;20113;-71
2022/11/26 02:09:30;;;;;;;10.13;6.28;;;;;;;7.60;96.61;102044.88;5104830;28;20035;-71
2022/11/26 02:11:56;;;;;;;9.73;6.65;;;;;;;7.58;97.31;102041.50;5094650;28;20036;-71
2022/11/26 02:14:29;;;;;;;11.75;6.60;;;;;;;7.61;97.11;102041.19;5112953;28;20054;-71
2022/11/26 02:17:01;;;;;;;11.43;6.47;;;;;;;7.59;97.33;102040.53;5103827;28;20387;-71
2022/11/26 02:20:03;;;;;;;9.27;6.28;;;;;;;7.56;97.29;102030.94;5087358;28;20054;-71
2022/11/26 02:22:50;;;;;;;11.38;6.53;;;;;;;7.61;96.67;102049.22;5107066;28;20028;-71
2022/11/26 02:25:26;;;;;;;11.07;6.05;;;;;;;7.63;97.16;102037.38;5118399;28;20135;-71
2022/11/26 02:28:29;;;;;;;10.27;6.13;;;;;;;7.66;97.17;102042.44;5108585;28;20050;-71
2022/11/26 02:31:30;;;;;;;8.90;5.82;;;;;;;7.50;98.15;102042.25;5104994;28;20024;-71
2022/11/26 02:34:23;;;;;;;10.05;6.15;;;;;;;7.62;97.56;102050.94;5079854;27;20471;-71
2022/11/26 02:37:04;;;;;;;8.25;5.90;;;;;;;7.65;97.21;102047.94;5104126;28;20032;-71
2022/11/26 02:39:30;;;;;;;9.05;6.22;;;;;;;7.63;97.09;102049.94;5087630;28;20028;-71
2022/11/26 02:41:59;;;;;;;10.13;6.28;;;;;;;7.62;97.49;102050.94;5111201;28;20028;-71
2022/11/26 02:44:29;;;;;;;11.27;5.97;;;;;;;7.63;97.27;102060.66;5100969;28;20435;-71
2022/11/26 02:47:05;;;;;;;11.45;6.78;;;;;;;7.56;97.01;102036.31;5115328;28;20019;-71
2022/11/26 02:49:33;;;;;;;9.77;6.35;;;;;;;7.54;97.44;102041.78;5088686;28;20028;-72
2022/11/26 02:52:03;;;;;;;9.68;6.35;;;;;;;7.68;97.48;102061.03;5112145;28;20088;-71
2022/11/26 02:54:30;;;;;;;10.38;6.80;;;;;;;7.68;97.58;102056.53;5113564;28;20446;-71
2022/11/26 02:56:57;;;;;;;9.15;6.63;;;;;;;7.60;97.73;102064.47;5102771;28;20052;-72
2022/11/26 02:59:22;;;;;;;9.20;6.05;;;;;;;7.62;97.70;102065.19;5087206;28;20455;-71
2022/11/26 03:02:02;;;;;;;10.48;6.57;;;;;;;7.67;97.08;102062.03;5112440;28;20024;-71
2022/11/26 03:04:50;;;;;;;8.73;6.63;;;;;;;7.63;97.45;102060.66;5111496;28;20032;-71
2022/11/26 03:07:17;;;;;;;9.57;6.28;;;;;;;7.67;97.64;102059.34;5063713;28;20063;-71
2022/11/26 03:09:53;;;;;;;8.63;6.13;;;;;;;7.67;97.49;102059.34;5074691;28;20059;-71
2022/11/26 03:12:19;;;;;;;9.05;5.93;;;;;;;7.68;97.59;102063.72;5071708;28;20668;-71
2022/11/26 03:14:45;;;;;;;14.40;6.93;;;;;;;7.66;97.86;102068.41;5080779;28;20036;-71
2022/11/26 03:17:10;;;;;;;11.43;6.32;;;;;;;7.54;97.78;102055.19;5057889;28;20055;-71
2022/11/26 03:19:36;;;;;;;10.85;6.70;;;;;;;7.64;97.64;102049.78;5063586;28;20048;-71
2022/11/26 03:22:02;;;;;;;9.05;6.38;;;;;;;7.72;97.47;102065.13;5069107;28;20036;-71
2022/11/26 03:24:27;;;;;;;9.45;6.38;;;;;;;7.73;97.67;102070.31;5086720;28;20059;-71
2022/11/26 03:26:52;;;;;;;10.02;6.57;;;;;;;7.69;97.68;102068.09;5062737;28;20040;-71
2022/11/26 03:29:18;;;;;;;10.10;6.90;;;;;;;7.67;97.99;102070.06;5092305;28;20067;-71
2022/11/26 03:31:44;;;;;;;11.85;7.32;;;;;;;7.70;98.03;102069.78;5066224;28;20028;-71
2022/11/26 03:34:09;;;;;;;9.75;6.75;;;;;;;7.72;98.25;102070.47;5069702;28;20036;-71
2022/11/26 03:36:36;;;;;;;10.77;6.47;;;;;;;7.76;97.84;102085.25;5090339;28;20608;-71
2022/11/26 03:39:02;;;;;;;10.23;6.85;;;;;;;7.77;98.02;102086.94;5078364;28;20039;-71
2022/11/26 03:41:27;;;;;;;10.32;6.95;;;;;;;7.71;97.65;102087.53;5114733;28;20503;-71
2022/11/26 03:43:53;;;;;;;11.50;6.82;;;;;;;7.74;97.56;102082.72;5106980;28;20031;-71
2022/11/26 03:46:18;;;;;;;9.93;7.07;;;;;;;7.77;97.61;102090.47;5106737;28;20051;-71
2022/11/26 03:48:44;;;;;;;10.52;6.82;;;;;;;7.70;98.53;102094.72;5113140;28;20081;-71
2022/11/26 03:51:09;;;;;;;10.65;6.47;;;;;;;7.73;98.04;102096.28;5067792;28;20040;-71
2022/11/26 03:53:35;;;;;;;10.30;6.95;;;;;;;7.77;98.36;102094.97;5114756;28;20059;-72
2022/11/26 03:56:05;;;;;;;12.65;6.78;;;;;;;7.79;98.14;102101.03;5107374;28;20111;-71
2022/11/26 03:58:30;;;;;;;11.25;7.13;;;;;;;7.75;98.04;102086.25;5088461;28;20036;-71
2022/11/26 04:00:56;;;;;;;12.63;6.68;;;;;;;7.69;98.12;102100.25;5113702;28;20023;-71
2022/11/26 04:03:21;;;;;;;10.35;6.90;;;;;;;7.72;98.75;102105.31;5101083;28;20035;-71
2022/11/26 04:05:47;;;;;;;12.18;7.00;;;;;;;7.75;98.66;102115.75;5111699;28;20112;-70
2022/11/26 04:08:12;;;;;;;10.63;6.90;;;;;;;7.77;98.72;102108.38;5091546;28;20039;-71
2022/11/26 04:10:39;;;;;;;9.68;7.00;;;;;;;7.74;98.76;102114.03;5103900;28;20024;-71
2022/11/26 04:13:04;;;;;;;11.95;6.97;;;;;;;7.75;98.73;102113.06;5115349;28;20039;-70
2022/11/26 04:15:29;;;;;;;11.50;7.45;;;;;;;7.79;98.44;102117.13;5101226;28;20031;-70
2022/11/26 04:17:55;;;;;;;13.82;7.50;;;;;;;7.81;98.15;102116.94;5110851;28;20053;-70
2022/11/26 04:20:20;;;;;;;11.88;6.82;;;;;;;7.79;98.48;102119.78;5092642;28;20043;-70
2022/11/26 04:22:46;;;;;;;12.65;7.15;;;;;;;7.83;98.31;102117.66;5104007;28;20051;-70
2022/11/26 04:25:14;;;;;;;10.23;7.35;;;;;;;7.65;98.48;102093.47;5117817;28;20046;-70
2022/11/26 04:27:39;;;;;;;14.35;7.00;;;;;;;7.83;98.76;102115.81;5105474;28;20032;-71
2022/11/26 04:30:07;;;;;;;10.75;7.15;;;;;;;7.79;98.98;102122.47;5094484;28;20032;-70
2022/11/26 04:32:35;;;;;;;12.70;7.45;;;;;;;7.79;99.03;102116.28;5097522;28;20035;-70
2022/11/26 04:35:02;;;;;;;11.52;7.22;;;;;;;7.80;98.82;102124.16;5086028;28;20028;-70
2022/11/26 04:37:28;;;;;;;11.75;7.47;;;;;;;7.75;99.14;102129.97;5116957;28;20092;-71
2022/11/26 04:39:53;;;;;;;11.70;7.28;;;;;;;7.71;99.65;102127.72;5090804;28;20070;-71
2022/11/26 04:42:19;;;;;;;10.70;7.38;;;;;;;7.75;99.20;102132.66;5110456;28;20051;-70
2022/11/26 04:44:44;;;;;;;12.68;7.65;;;;;;;7.76;99.10;102133.50;5114399;28;20096;-71
2022/11/26 04:47:09;;;;;;;13.13;7.80;;;;;;;7.60;99.71;102101.13;5104607;28;20063;-70
2022/11/26 04:49:35;;;;;;;12.25;7.68;;;;;;;7.80;99.28;102134.88;5113736;28;20028;-70
2022/11/26 04:52:00;;;;;;;14.80;8.23;;;;;;;7.71;99.64;102127.72;5089241;28;20027;-70
2022/11/26 04:54:25;;;;;;;11.48;7.57;;;;;;;7.74;99.94;102136.31;5106981;28;20035;-72
2022/11/26 04:56:51;;;;;;;12.23;8.07;;;;;;;7.74;100.00;102141.66;5097065;28;20581;-70
2022/11/26 04:59:16;;;;;;;13.23;7.35;;;;;;;7.76;99.97;102141.53;5103048;28;20484;-70
2022/11/26 05:01:42;;;;;;;11.45;7.18;;;;;;;7.81;99.64;102141.06;5112864;28;20035;-71
2022/11/26 05:04:07;;;;;;;13.07;7.18;;;;;;;7.77;100.00;102140.53;5109905;28;20403;-70
2022/11/26 05:06:33;;;;;;;14.38;7.38;;;;;;;7.79;99.99;102146.59;5110471;28;20104;-70
2022/11/26 05:08:58;;;;;;;13.55;7.93;;;;;;;7.76;100.00;102150.41;5118860;28;20027;-70
2022/11/26 05:11:24;;;;;;;15.27;8.07;;;;;;;7.76;100.00;102153.09;5104583;28;20043;-70
2022/11/26 05:13:49;;;;;;;11.07;7.50;;;;;;;7.73;100.00;102153.38;5114488;28;20028;-70
2022/11/26 05:16:14;;;;;;;11.40;7.30;;;;;;;7.80;100.00;102152.78;5111213;28;20043;-70
2022/11/26 05:18:40;;;;;;;10.98;7.53;;;;;;;7.79;100.00;102165.34;5108363;28;20034;-70
2022/11/26 05:21:05;;;;;;;12.30;7.55;;;;;;;7.77;100.00;102156.59;5119327;28;20124;-70
2022/11/26 05:23:31;;;;;;;10.93;7.32;;;;;;;7.64;100.00;102143.53;5089801;28;20032;-70
2022/11/26 05:25:56;;;;;;;12.57;7.57;;;;;;;7.79;100.00;102165.34;5115637;28;20019;-70
2022/11/26 05:28:21;;;;;;;13.60;7.88;;;;;;;7.77;100.00;102160.13;5114968;28;20031;-70
2022/11/26 05:30:47;;;;;;;13.45;7.95;;;;;;;7.77;100.00;102164.66;5107040;28;20055;-70
2022/11/26 05:33:12;;;;;;;12.10;7.07;;;;;;;7.75;100.00;102163.97;5119895;28;20027;-70
2022/11/26 05:35:38;;;;;;;14.00;7.57;;;;;;;7.77;100.00;102168.16;5089381;28;20031;-70
2022/11/26 05:38:03;;;;;;;11.82;7.68;;;;;;;7.75;100.00;102166.66;5112606;28;20031;-70
2022/11/26 05:40:28;;;;;;;13.50;7.65;;;;;;;7.79;100.00;102167.19;5114724;28;20038;-70
2022/11/26 05:42:54;;;;;;;12.93;7.32;;;;;;;7.62;100.00;102148.22;5106563;28;20051;-70
2022/11/26 05:45:19;;;;;;;12.48;8.25;;;;;;;7.63;100.00;102154.41;5102251;28;20112;-70
2022/11/26 05:47:45;;;;;;;13.88;8.23;;;;;;;7.78;100.00;102177.03;5109746;28;20047;-70
2022/11/26 05:50:10;;;;;;;11.60;7.72;;;;;;;7.78;100.00;102177.03;5112376;28;20028;-71
2022/11/26 05:52:36;;;;;;;14.07;8.40;;;;;;;7.82;100.00;102180.28;5115955;28;20031;-70
2022/11/26 05:55:02;;;;;;;11.93;7.78;;;;;;;7.82;100.00;102181.13;5107114;28;20032;-70
2022/11/26 05:57:27;;;;;;;13.02;7.82;;;;;;;7.81;100.00;102184.78;5118519;28;20077;-70
2022/11/26 05:59:52;;;;;;;14.23;7.88;;;;;;;7.79;100.00;102164.50;5092207;28;20099;-70
2022/11/26 06:02:18;;;;;;;13.23;8.52;;;;;;;7.86;100.00;102177.16;5110887;28;20032;-71
2022/11/26 06:04:43;;;;;;;16.63;8.30;;;;;;;7.85;100.00;102180.84;5097756;28;20042;-71
2022/11/26 06:07:09;;;;;;;14.70;8.48;;;;;;;7.84;100.00;102176.44;5103503;28;20031;-71
2022/11/26 06:09:35;;;;;;;12.52;8.10;;;;;;;7.85;100.00;102178.16;5117125;28;20085;-71
2022/11/26 06:12:01;;;;;;;12.90;8.23;;;;;;;7.82;100.00;102170.41;5109002;28;20027;-70
2022/11/26 06:14:26;;;;;;;14.48;8.02;;;;;;;7.77;100.00;102178.03;5121547;28;20027;-71
2022/11/26 06:16:52;;;;;;;14.93;8.38;;;;;;;7.81;100.00;102187.47;5071085;28;20039;-71
2022/11/26 06:19:17;;;;;;;15.50;8.32;;;;;;;7.85;100.00;102183.53;5117584;28;20538;-70
2022/11/26 06:21:43;;;;;;;12.85;7.88;;;;;;;7.87;100.00;102192.25;5114677;28;20061;-71
2022/11/26 06:24:08;;;;;;;14.35;8.52;;;;;;;7.74;100.00;102175.66;5125311;28;20043;-71
2022/11/26 06:26:34;;;;;;;14.27;8.35;;;;;;;7.87;100.00;102194.91;5114007;28;20027;-71
2022/11/26 06:28:59;;;;;;;13.25;8.68;;;;;;;7.86;100.00;102198.59;5097451;28;20089;-71
2022/11/26 06:31:24;;;;;;;13.00;8.50;;;;;;;7.79;100.00;102197.50;5118057;28;20032;-71
2022/11/26 06:33:59;;;;;;;13.00;8.38;;;;;;;7.98;100.00;102212.69;5112926;28;20027;-71
2022/11/26 06:36:24;;;;;;;;;;;;;;;8.00;100.00;102211.50;5111938;28;20440;-70
2022/11/26 06:38:50;;;;;;;14.70;8.18;;;;;;;7.95;100.00;102205.75;5104632;28;19957;-71
2022/11/26 06:41:15;;;;;;;14.20;8.13;;;;;;;8.05;100.00;102218.28;5098105;28;20027;-71
2022/11/26 06:43:41;;;;;;;13.65;8.65;;;;;;;8.06;100.00;102214.59;5105624;28;20046;-71
2022/11/26 06:46:08;;;;;;;13.18;7.57;;;;;;;7.86;100.00;102184.38;5111456;28;20482;-71
2022/11/26 06:48:35;;;;;;;13.23;8.30;;;;;;;8.06;100.00;102214.59;5112929;28;20039;-71
2022/11/26 06:51:10;;;;;;;12.85;7.75;;;;;;;8.14;100.00;102228.09;5103879;28;20031;-71
2022/11/26 06:53:35;;;;;;;;;;;;;;;8.15;100.00;102233.34;5089378;28;20106;-71
2022/11/26 06:56:03;;;;;;;13.40;7.45;;;;;;;8.12;100.00;102230.09;5111269;28;19947;-71
2022/11/26 06:58:29;;;;;;;11.93;7.20;;;;;;;8.12;100.00;102239.00;5111758;28;20027;-71
2022/11/26 07:00:55;;;;;;;11.60;8.10;;;;;;;8.12;100.00;102240.81;5103872;27;20032;-71
2022/11/26 07:03:22;;;;;;;11.95;8.25;;;;;;;7.93;100.00;102199.69;5117041;28;20031;-71
2022/11/26 07:05:47;;;;;;;13.80;8.43;;;;;;;7.93;100.00;102222.97;5104204;28;20019;-71
2022/11/26 07:08:12;;;;;;;12.45;8.18;;;;;;;8.06;100.00;102242.25;5108637;28;20060;-71
2022/11/26 07:10:38;;;;;;;12.52;8.23;;;;;;;8.13;100.00;102246.03;5112645;28;20039;-71
2022/11/26 07:13:03;;;;;;;14.10;8.20;;;;;;;8.14;100.00;102249.56;5101357;28;20059;-71
2022/11/26 07:15:28;;;;;;;13.73;8.32;;;;;;;8.05;100.00;102235.22;5097346;28;20052;-71
2022/11/26 07:17:54;;;;;;;13.48;8.00;;;;;;;8.17;100.00;102251.94;5106562;28;20106;-71
2022/11/26 07:20:19;;;;;;;13.43;7.95;;;;;;;8.11;100.00;102249.84;5124544;27;20040;-71
2022/11/26 07:22:45;;;;;;;12.60;8.05;;;;;;;8.12;100.00;102255.06;5111805;28;20027;-71
2022/11/26 07:25:11;;;;;;;14.35;8.07;;;;;;;8.18;100.00;102259.84;5083698;28;20369;-71
2022/11/26 07:27:36;;;;;;;13.68;8.57;;;;;;;8.21;100.00;102258.69;5114181;28;20035;-71
2022/11/26 07:30:02;;;;;;;12.23;8.57;;;;;;;8.21;100.00;102266.72;5107615;28;20083;-71
2022/11/26 07:32:29;;;;;;;13.32;8.23;;;;;;;8.17;100.00;102259.97;5105743;28;20043;-73
2022/11/26 07:34:54;;;;;;;11.35;7.97;;;;;;;8.23;100.00;102272.81;5113462;28;20080;-71
2022/11/26 07:37:20;;;;;;;13.15;8.68;;;;;;;8.19;100.00;102269.56;5100289;28;20039;-71
2022/11/26 07:39:46;;;;;;;15.18;8.82;;;;;;;8.30;100.00;102281.94;5111819;28;20024;-71
2022/11/26 07:42:12;;;;;;;11.90;8.20;;;;;;;8.26;100.00;102277.03;5108900;28;20053;-71
2022/11/26 07:44:38;;;;;;;15.18;8.85;;;;;;;8.03;100.00;102247.06;5104192;28;20040;-71
2022/11/26 07:47:04;;;;;;;14.02;8.57;;;;;;;8.26;100.00;102290.44;5113933;28;20038;-71
2022/11/26 07:49:29;;;;;;;14.20;9.43;;;;;;;8.31;100.00;102288.16;5084547;28;20031;-71
2022/11/26 07:51:55;;;;;;;15.80;10.15;;;;;;;8.29;100.00;102291.00;5111536;28;20069;-71
2022/11/26 07:54:20;;;;;;;14.45;9.65;;;;;;;8.32;100.00;102292.53;5125526;28;20040;-71
2022/11/26 07:56:45;;;;;;;16.17;10.15;;;;;;;8.29;100.00;102292.84;5112334;28;20048;-71
2022/11/26 07:59:11;;;;;;;16.38;9.98;;;;;;;8.30;100.00;102303.41;5112965;28;20035;-70
2022/11/26 08:01:37;;;;;;;15.27;9.30;;;;;;;8.19;100.00;102279.47;5097588;28;20032;-71
2022/11/26 08:04:04;;;;;;;16.08;10.27;;;;;;;8.32;100.00;102309.47;5109929;28;20020;-71
2022/11/26 08:06:30;;;;;;;15.45;9.60;;;;;;;8.27;100.00;102298.31;5110030;28;20035;-71
2022/11/26 08:08:58;;;;;;;15.82;9.60;;;;;;;8.27;100.00;102301.00;5102244;28;20042;-71
2022/11/26 08:11:26;;;;;;;16.77;9.73;;;;;;;8.31;100.00;102306.91;5115648;28;20038;-71
2022/11/26 08:13:54;;;;;;;15.07;9.65;;;;;;;8.33;100.00;102299.59;5105397;28;20027;-71
2022/11/26 08:16:20;;;;;;;17.58;10.18;;;;;;;8.35;100.00;102303.81;5107643;28;20056;-72
2022/11/26 08:18:45;;;;;;;15.88;10.27;;;;;;;8.36;100.00;102313.53;5113490;28;20355;-72
2022/11/26 08:21:10;;;;;;;17.55;10.50;;;;;;;8.36;100.00;102305.50;5101918;28;20046;-71
2022/11/26 08:23:37;;;;;;;16.30;10.07;;;;;;;8.36;100.00;102312.69;5115398;28;20344;-68
2022/11/26 08:26:08;;;;;;;19.73;11.18;;;;;;;8.40;100.00;102312.28;5107276;28;20474;-72
2022/11/26 08:28:34;;;;;;;19.25;10.75;;;;;;;8.43;100.00;102308.47;5104611;28;20038;-72
2022/11/26 08:31:01;;;;;;;21.73;11.02;;;;;;;8.39;100.00;102318.66;5114299;28;20035;-70
2022/11/26 08:33:26;;;;;;;17.10;9.95;;;;;;;8.43;100.00;102327.25;5083088;28;20110;-71
2022/11/26 08:35:55;;;;;;;16.73;10.15;;;;;;;8.46;100.00;102330.47;5111243;28;20070;-70
2022/11/26 08:38:20;;;;;;;19.63;10.90;;;;;;;8.47;100.00;102323.25;5091185;28;20034;-71
2022/11/26 08:40:46;;;;;;;17.67;10.95;;;;;;;8.50;100.00;102324.81;5105645;28;20115;-71
2022/11/26 08:43:11;;;;;;;19.23;11.35;;;;;;;8.50;100.00;102324.81;5116681;28;20041;-73
2022/11/26 08:45:37;;;;;;;16.42;10.85;;;;;;;8.50;100.00;102325.66;5104605;28;20034;-69
2022/11/26 08:48:02;;;;;;;17.77;11.40;;;;;;;8.42;100.00;102307.63;5113095;28;20057;-70
2022/11/26 08:50:28;;;;;;;17.02;11.40;;;;;;;8.60;100.00;102329.13;5113564;28;20031;-72
2022/11/26 08:52:53;;;;;;;21.05;11.88;;;;;;;8.60;100.00;102333.66;5107231;28;20039;-70
2022/11/26 08:55:18;;;;;;;21.92;11.98;;;;;;;8.63;100.00;102334.19;5118541;28;20407;-72
2022/11/26 08:57:45;;;;;;;20.23;11.77;;;;;;;8.68;100.00;102329.25;5105705;28;20035;-70
2022/11/26 09:00:11;;;;;;;20.95;11.05;;;;;;;8.70;100.00;102331.75;5093691;28;20036;-72
2022/11/26 09:02:36;;;;;;;21.08;11.63;;;;;;;8.68;100.00;102328.41;5112878;28;20111;-71
2022/11/26 09:05:02;;;;;;;19.05;11.23;;;;;;;8.56;100.00;102311.66;5087091;28;20467;-71
2022/11/26 09:07:27;;;;;;;19.30;11.52;;;;;;;8.62;100.00;102331.69;5116838;28;20020;-73
2022/11/26 09:09:53;;;;;;;18.98;12.50;;;;;;;8.73;100.00;102344.88;5108170;28;20066;-72
2022/11/26 09:12:18;;;;;;;22.27;11.93;;;;;;;8.73;100.00;102347.56;5110041;28;20403;-71
2022/11/26 09:14:44;;;;;;;22.05;11.15;;;;;;;8.73;100.00;102336.84;5114387;28;20038;-71
2022/11/26 09:17:10;;;;;;;19.02;11.77;;;;;;;8.77;100.00;102345.44;5102701;28;20513;-72
2022/11/26 09:19:36;;;;;;;22.45;12.55;;;;;;;8.68;100.00;102317.66;5114945;28;20020;-72
2022/11/26 09:22:02;;;;;;;20.48;12.07;;;;;;;8.84;100.00;102342.03;5107284;28;20146;-72
2022/11/26 09:24:27;;;;;;;23.55;12.25;;;;;;;8.78;100.00;102333.72;5109745;27;20031;-73
2022/11/26 09:26:53;;;;;;;23.50;11.82;;;;;;;8.89;100.00;102347.75;5113907;28;20398;-72
2022/11/26 09:29:21;;;;;;;18.52;11.50;;;;;;;8.89;100.00;102346.94;5118224;27;20062;-72
2022/11/26 09:31:46;;;;;;;21.63;11.68;;;;;;;8.90;100.00;102349.44;5098077;28;20534;-72
2022/11/26 09:34:15;;;;;;;19.38;11.38;;;;;;;8.85;100.00;102351.75;5091079;28;20055;-72
2022/11/26 09:36:41;;;;;;;23.50;12.13;;;;;;;8.92;100.00;102354.69;5109713;28;20051;-72
2022/11/26 09:39:06;;;;;;;20.77;11.13;;;;;;;8.97;100.00;102351.53;5114950;28;20031;-72
2022/11/26 09:42:02;;;;;;;21.02;12.10;;;;;;;9.07;100.00;102360.38;5111616;28;20032;-72
2022/11/26 09:44:53;;;;;;;26.75;12.82;;;;;;;9.12;100.00;102368.84;5105849;28;20065;-72
2022/11/26 09:47:26;;;;;;;24.35;12.25;;;;;;;9.09;100.00;102369.97;5104987;28;20039;-72
2022/11/26 09:50:02;;;;;;;17.75;12.38;;;;;;;9.06;100.00;102372.97;5114364;28;20421;-72
2022/11/26 09:52:35;;;;;;;24.65;14.02;;;;;;;9.06;100.00;102361.38;5113263;28;20023;-71
2022/11/26 09:55:30;;;;;;;20.27;12.52;;;;;;;9.09;100.00;102353.84;5114871;28;20027;-71
2022/11/26 09:58:20;;;;;;;20.43;11.97;;;;;;;9.07;100.00;102347.81;5103317;27;20067;-71
2022/11/26 10:01:06;;;;;;;23.25;11.90;;;;;;;9.06;100.00;102356.84;5102965;28;20046;-72
2022/11/26 10:03:38;;;;;;;20.52;11.95;;;;;;;9.06;100.00;102356.00;5057456;28;20037;-72
2022/11/26 10:06:09;;;;;;;23.80;12.32;;;;;;;9.07;100.00;102366.63;5060177;28;20055;-72
2022/11/26 10:08:53;;;;;;;21.23;11.75;;;;;;;9.09;100.00;102369.13;5059605;28;20047;-72
2022/11/26 10:11:21;;;;;;;23.17;12.32;;;;;;;9.14;100.00;102381.13;5056736;28;20106;-72
2022/11/26 10:14:04;;;;;;;21.42;12.38;;;;;;;8.72;100.00;102311.00;5076632;28;20044;-71
2022/11/26 10:17:08;;;;;;;22.48;12.32;;;;;;;9.28;100.00;102387.81;5076017;28;20036;-72
2022/11/26 10:20:15;;;;;;;24.98;13.00;;;;;;;9.33;100.00;102392.72;5012619;28;20100;-72
2022/11/26 10:23:04;;;;;;;26.23;13.55;;;;;;;9.36;100.00;102395.94;5063472;28;20107;-72
2022/11/26 10:25:38;;;;;;;19.15;11.95;;;;;;;9.35;100.00;102394.25;5043877;28;20590;-72
2022/11/26 10:28:49;;;;;;;19.63;12.00;;;;;;;9.35;100.00;102401.47;5052159;28;20471;-72
2022/11/26 10:31:23;;;;;;;22.50;13.32;;;;;;;9.29;100.00;102385.97;5056791;28;20051;-72
2022/11/26 10:34:20;;;;;;;21.50;12.48;;;;;;;9.28;100.00;102389.66;5071664;28;20032;-72
2022/11/26 10:36:47;;;;;;;21.90;11.68;;;;;;;9.30;100.00;102395.69;5105756;28;20039;-72
2022/11/26 10:39:16;;;;;;;20.30;11.60;;;;;;;9.32;100.00;102389.19;5099857;28;20053;-73
2022/11/26 10:41:42;;;;;;;22.75;12.70;;;;;;;9.32;100.00;102396.41;5114628;28;20036;-72
2022/11/26 10:44:44;;;;;;;20.05;11.63;;;;;;;9.31;100.00;102398.25;5108403;28;20031;-72
2022/11/26 10:47:30;;;;;;;21.25;11.38;;;;;;;9.27;100.00;102393.31;5085201;28;20559;-72
2022/11/26 10:50:01;;;;;;;23.92;12.98;;;;;;;9.29;100.00;102397.56;5111410;28;20040;-72
2022/11/26 10:52:30;;;;;;;23.60;12.23;;;;;;;9.27;100.00;102396.88;5109724;28;20057;-72
2022/11/26 10:55:20;;;;;;;23.45;11.88;;;;;;;9.21;100.00;102404.69;5103040;28;20081;-72
2022/11/26 10:58:01;;;;;;;22.95;12.35;;;;;;;9.13;100.00;102381.25;5089538;28;20028;-71
2022/11/26 11:00:29;;;;;;;22.20;12.77;;;;;;;9.26;100.00;102403.22;5108479;28;20435;-71
2022/11/26 11:02:54;;;;;;;25.95;12.68;;;;;;;9.28;100.00;102403.94;5115027;28;20028;-71
2022/11/26 11:05:20;;;;;;;19.75;12.27;;;;;;;9.20;100.00;102393.06;5103508;28;20125;-71
2022/11/26 11:07:46;;;;;;;22.67;12.68;;;;;;;9.28;100.00;102397.72;5097333;28;20081;-71
2022/11/26 11:10:11;;;;;;;22.00;12.52;;;;;;;9.29;100.00;102410.97;5108354;28;20045;-71
2022/11/26 11:12:41;;;;;;;22.02;13.30;;;;;;;9.32;100.00;102407.16;5107375;28;20043;-71
2022/11/26 11:15:31;;;;;;;25.92;13.68;;;;;;;9.32;100.00;102401.78;5115816;28;20031;-71
2022/11/26 11:18:03;;;;;;;22.98;12.85;;;;;;;9.38;100.00;102414.59;5092089;28;20024;-71
2022/11/26 11:20:54;;;;;;;20.95;12.73;;;;;;;9.30;100.00;102393.00;5107895;28;20020;-71
2022/11/26 11:23:25;;;;;;;21.10;13.40;;;;;;;9.40;100.00;102409.91;5115261;28;20057;-71
2022/11/26 11:26:03;;;;;;;23.80;13.07;;;;;;;9.43;100.00;102411.47;5105266;28;20080;-71
2022/11/26 11:28:32;;;;;;;24.70;12.75;;;;;;;9.38;100.00;102409.25;5109418;28;20039;-71
2022/11/26 11:31:07;;;;;;;22.02;12.93;;;;;;;9.43;100.00;102414.97;5114396;28;20058;-71